sensor_id;sensor_type;location;lat;lon;timestamp;pressure;altitude;pressure_sealevel;temperature;humidity
28000;BME280;15328;50.860;10.562;2022-08-21T00:03:32;96643.41;;;18.87;64.83
28000;BME280;15328;50.860;10.562;2022-08-21T00:08:33;96638.03;;;18.82;64.56
28000;BME280;15328;50.860;10.562;2022-08-21T00:13:34;96622.63;;;18.72;64.98
28000;BME280;15328;50.860;10.562;2022-08-21T00:18:35;96625.88;;;18.69;65.06
28000;BME280;15328;50.860;10.562;2022-08-21T00:23:35;96616.69;;;18.65;65.28
28000;BME280;15328;50.860;10.562;2022-08-21T00:28:36;96623.91;;;18.60;65.47
28000;BME280;15328;50.860;10.562;2022-08-21T00:33:36;96628.72;;;18.52;65.55
28000;BME280;15328;50.860;10.562;2022-08-21T00:38:36;96628.97;;;18.41;65.85
28000;BME280;15328;50.860;10.562;2022-08-21T00:43:38;96616.78;;;18.33;65.74
28000;BME280;15328;50.860;10.562;2022-08-21T00:48:39;96617.56;;;18.23;66.34
28000;BME280;15328;50.860;10.562;2022-08-21T00:53:42;96614.31;;;18.21;66.21
28000;BME280;15328;50.860;10.562;2022-08-21T00:58:44;96625.34;;;18.20;66.15
28000;BME280;15328;50.860;10.562;2022-08-21T01:03:45;96617.78;;;18.17;66.18
28000;BME280;15328;50.860;10.562;2022-08-21T01:08:46;96613.78;;;18.19;66.06
28000;BME280;15328;50.860;10.562;2022-08-21T01:13:47;96620.25;;;18.23;65.89
28000;BME280;15328;50.860;10.562;2022-08-21T01:18:49;96605.97;;;18.23;66.05
28000;BME280;15328;50.860;10.562;2022-08-21T01:23:52;96603.53;;;18.16;65.93
28000;BME280;15328;50.860;10.562;2022-08-21T01:29:00;96611.88;;;18.15;66.01
28000;BME280;15328;50.860;10.562;2022-08-21T01:34:03;96613.25;;;18.22;65.97
28000;BME280;15328;50.860;10.562;2022-08-21T01:39:04;96610.00;;;18.20;66.33
28000;BME280;15328;50.860;10.562;2022-08-21T01:44:05;96619.69;;;18.16;66.32
28000;BME280;15328;50.860;10.562;2022-08-21T01:49:06;96609.69;;;18.12;66.36
28000;BME280;15328;50.860;10.562;2022-08-21T01:54:06;96611.31;;;18.13;66.53
28000;BME280;15328;50.860;10.562;2022-08-21T01:59:07;96613.22;;;18.17;66.22
28000;BME280;15328;50.860;10.562;2022-08-21T02:04:09;96609.47;;;18.18;66.15
28000;BME280;15328;50.860;10.562;2022-08-21T02:09:11;96600.84;;;18.16;66.28
28000;BME280;15328;50.860;10.562;2022-08-21T02:14:14;96593.56;;;18.12;66.43
28000;BME280;15328;50.860;10.562;2022-08-21T02:19:16;96597.59;;;18.14;66.26
28000;BME280;15328;50.860;10.562;2022-08-21T02:24:16;96590.06;;;18.16;66.04
28000;BME280;15328;50.860;10.562;2022-08-21T02:29:17;96588.47;;;18.20;65.71
28000;BME280;15328;50.860;10.562;2022-08-21T02:34:17;96590.03;;;18.11;65.75
28000;BME280;15328;50.860;10.562;2022-08-21T02:39:17;96591.69;;;18.17;65.76
28000;BME280;15328;50.860;10.562;2022-08-21T02:44:18;96594.09;;;18.14;65.69
28000;BME280;15328;50.860;10.562;2022-08-21T02:49:18;96584.66;;;18.11;65.63
28000;BME280;15328;50.860;10.562;2022-08-21T02:54:18;96593.47;;;18.02;66.00
28000;BME280;15328;50.860;10.562;2022-08-21T02:59:19;96594.50;;;17.90;66.45
28000;BME280;15328;50.860;10.562;2022-08-21T03:04:19;96579.13;;;17.86;66.54
28000;BME280;15328;50.860;10.562;2022-08-21T03:09:20;96583.47;;;17.92;66.33
28000;BME280;15328;50.860;10.562;2022-08-21T03:14:20;96582.94;;;17.90;66.20
28000;BME280;15328;50.860;10.562;2022-08-21T03:19:20;96579.59;;;17.78;66.46
28000;BME280;15328;50.860;10.562;2022-08-21T03:24:21;96589.25;;;17.69;66.64
28000;BME280;15328;50.860;10.562;2022-08-21T03:29:21;96590.34;;;17.73;66.63
28000;BME280;15328;50.860;10.562;2022-08-21T03:34:21;96584.69;;;17.74;66.67
28000;BME280;15328;50.860;10.562;2022-08-21T03:39:22;96578.16;;;17.65;66.53
28000;BME280;15328;50.860;10.562;2022-08-21T03:44:22;96580.28;;;17.58;66.81
28000;BME280;15328;50.860;10.562;2022-08-21T03:49:23;96581.59;;;17.55;66.64
28000;BME280;15328;50.860;10.562;2022-08-21T03:54:23;96578.66;;;17.57;66.66
28000;BME280;15328;50.860;10.562;2022-08-21T03:59:23;96576.72;;;17.52;66.68
28000;BME280;15328;50.860;10.562;2022-08-21T04:04:25;96583.97;;;17.52;66.72
28000;BME280;15328;50.860;10.562;2022-08-21T04:09:26;96589.88;;;17.49;66.90
28000;BME280;15328;50.860;10.562;2022-08-21T04:14:26;96589.94;;;17.54;66.62
28000;BME280;15328;50.860;10.562;2022-08-21T04:19:26;96593.59;;;17.43;66.89
28000;BME280;15328;50.860;10.562;2022-08-21T04:24:27;96601.25;;;17.56;66.34
28000;BME280;15328;50.860;10.562;2022-08-21T04:29:27;96607.09;;;17.53;66.22
28000;BME280;15328;50.860;10.562;2022-08-21T04:34:27;96612.44;;;17.48;66.09
28000;BME280;15328;50.860;10.562;2022-08-21T04:39:28;96621.38;;;17.53;66.12
28000;BME280;15328;50.860;10.562;2022-08-21T04:44:28;96625.63;;;17.49;66.03
28000;BME280;15328;50.860;10.562;2022-08-21T04:49:29;96628.88;;;17.51;65.85
28000;BME280;15328;50.860;10.562;2022-08-21T04:54:31;96637.75;;;17.52;65.81
28000;BME280;15328;50.860;10.562;2022-08-21T04:59:35;96641.63;;;17.61;65.51
28000;BME280;15328;50.860;10.562;2022-08-21T05:04:42;96649.69;;;17.61;65.46
28000;BME280;15328;50.860;10.562;2022-08-21T05:09:43;96644.03;;;17.63;65.78
28000;BME280;15328;50.860;10.562;2022-08-21T05:14:44;96649.94;;;17.59;65.94
28000;BME280;15328;50.860;10.562;2022-08-21T05:19:44;96654.25;;;17.60;66.64
28000;BME280;15328;50.860;10.562;2022-08-21T05:24:45;96647.63;;;17.73;66.98
28000;BME280;15328;50.860;10.562;2022-08-21T05:29:45;96655.28;;;17.86;66.69
28000;BME280;15328;50.860;10.562;2022-08-21T05:34:46;96658.31;;;18.00;66.25
28000;BME280;15328;50.860;10.562;2022-08-21T05:39:46;96651.16;;;18.11;66.30
28000;BME280;15328;50.860;10.562;2022-08-21T05:44:47;96663.28;;;18.18;66.25
28000;BME280;15328;50.860;10.562;2022-08-21T05:49:47;96656.31;;;18.22;65.99
28000;BME280;15328;50.860;10.562;2022-08-21T05:54:48;96654.78;;;18.37;65.28
28000;BME280;15328;50.860;10.562;2022-08-21T05:59:49;96659.97;;;18.53;64.97
28000;BME280;15328;50.860;10.562;2022-08-21T06:04:50;96646.25;;;18.55;65.59
28000;BME280;15328;50.860;10.562;2022-08-21T06:09:50;96648.22;;;18.65;66.29
28000;BME280;15328;50.860;10.562;2022-08-21T06:14:51;96648.53;;;18.78;65.84
28000;BME280;15328;50.860;10.562;2022-08-21T06:19:53;96647.25;;;18.96;65.92
28000;BME280;15328;50.860;10.562;2022-08-21T06:24:54;96647.25;;;19.01;66.25
28000;BME280;15328;50.860;10.562;2022-08-21T06:29:54;96647.81;;;19.13;66.48
28000;BME280;15328;50.860;10.562;2022-08-21T06:34:57;96643.78;;;19.26;66.23
28000;BME280;15328;50.860;10.562;2022-08-21T06:39:58;96643.78;;;19.36;66.16
28000;BME280;15328;50.860;10.562;2022-08-21T06:44:58;96646.78;;;19.50;65.96
28000;BME280;15328;50.860;10.562;2022-08-21T06:49:58;96656.50;;;19.71;65.62
28000;BME280;15328;50.860;10.562;2022-08-21T06:54:59;96658.66;;;19.90;65.47
28000;BME280;15328;50.860;10.562;2022-08-21T06:59:59;96659.16;;;20.22;65.13
28000;BME280;15328;50.860;10.562;2022-08-21T07:05:00;96654.28;;;20.34;64.82
28000;BME280;15328;50.860;10.562;2022-08-21T07:10:00;96656.13;;;20.54;64.99
28000;BME280;15328;50.860;10.562;2022-08-21T07:15:01;96662.25;;;20.75;64.59
28000;BME280;15328;50.860;10.562;2022-08-21T07:20:03;96652.69;;;20.98;64.49
28000;BME280;15328;50.860;10.562;2022-08-21T07:25:04;96642.03;;;21.22;63.44
28000;BME280;15328;50.860;10.562;2022-08-21T07:30:06;96657.09;;;21.38;62.32
28000;BME280;15328;50.860;10.562;2022-08-21T07:35:06;96652.78;;;21.37;61.88
28000;BME280;15328;50.860;10.562;2022-08-21T07:40:08;96648.38;;;21.46;61.01
28000;BME280;15328;50.860;10.562;2022-08-21T07:45:09;96646.06;;;21.64;60.65
28000;BME280;15328;50.860;10.562;2022-08-21T07:50:11;96639.94;;;21.53;59.36
28000;BME280;15328;50.860;10.562;2022-08-21T07:55:15;96642.44;;;21.78;59.54
28000;BME280;15328;50.860;10.562;2022-08-21T08:00:19;96640.25;;;21.80;59.26
28000;BME280;15328;50.860;10.562;2022-08-21T08:05:24;96635.75;;;22.00;59.21
28000;BME280;15328;50.860;10.562;2022-08-21T08:10:25;96632.31;;;22.23;58.27
28000;BME280;15328;50.860;10.562;2022-08-21T08:15:27;96624.00;;;22.38;57.76
28000;BME280;15328;50.860;10.562;2022-08-21T08:20:28;96624.34;;;22.56;57.31
28000;BME280;15328;50.860;10.562;2022-08-21T08:25:29;96615.97;;;22.76;56.01
28000;BME280;15328;50.860;10.562;2022-08-21T08:30:29;96626.44;;;23.06;55.17
28000;BME280;15328;50.860;10.562;2022-08-21T08:35:30;96621.88;;;23.21;54.34
28000;BME280;15328;50.860;10.562;2022-08-21T08:40:42;96623.19;;;23.23;54.40
28000;BME280;15328;50.860;10.562;2022-08-21T08:45:48;96613.34;;;23.27;54.89
28000;BME280;15328;50.860;10.562;2022-08-21T08:50:55;96623.63;;;23.68;54.24
28000;BME280;15328;50.860;10.562;2022-08-21T08:55:57;96617.56;;;24.03;52.85
28000;BME280;15328;50.860;10.562;2022-08-21T09:01:00;96622.66;;;24.38;51.97
28000;BME280;15328;50.860;10.562;2022-08-21T09:06:10;96622.91;;;24.41;49.79
28000;BME280;15328;50.860;10.562;2022-08-21T09:11:32;96611.09;;;24.59;49.77
28000;BME280;15328;50.860;10.562;2022-08-21T09:16:48;96604.41;;;25.07;48.64
28000;BME280;15328;50.860;10.562;2022-08-21T09:27:22;96608.31;;;25.95;45.40
28000;BME280;15328;50.860;10.562;2022-08-21T09:32:30;96610.47;;;26.07;44.35
28000;BME280;15328;50.860;10.562;2022-08-21T09:37:44;96604.78;;;25.72;44.67
28000;BME280;15328;50.860;10.562;2022-08-21T09:42:54;96604.50;;;25.38;44.73
28000;BME280;15328;50.860;10.562;2022-08-21T09:47:55;96615.59;;;26.08;43.88
28000;BME280;15328;50.860;10.562;2022-08-21T09:53:00;96600.41;;;27.38;40.84
28000;BME280;15328;50.860;10.562;2022-08-21T09:58:01;96610.13;;;28.64;38.34
28000;BME280;15328;50.860;10.562;2022-08-21T10:03:28;96603.25;;;29.38;36.00
28000;BME280;15328;50.860;10.562;2022-08-21T10:08:29;96603.44;;;28.82;36.22
28000;BME280;15328;50.860;10.562;2022-08-21T10:13:39;96604.88;;;28.04;36.63
28000;BME280;15328;50.860;10.562;2022-08-21T10:18:56;96604.25;;;27.89;37.51
28000;BME280;15328;50.860;10.562;2022-08-21T10:24:34;96609.41;;;27.30;38.22
28000;BME280;15328;50.860;10.562;2022-08-21T10:29:56;96607.69;;;26.77;37.47
28000;BME280;15328;50.860;10.562;2022-08-21T10:45:36;96595.13;;;29.00;33.66
28000;BME280;15328;50.860;10.562;2022-08-21T10:50:47;96596.53;;;28.85;32.17
28000;BME280;15328;50.860;10.562;2022-08-21T11:00:56;96583.25;;;27.47;34.60
28000;BME280;15328;50.860;10.562;2022-08-21T11:06:20;96578.00;;;26.67;35.42
28000;BME280;15328;50.860;10.562;2022-08-21T11:11:29;96577.59;;;26.34;37.43
28000;BME280;15328;50.860;10.562;2022-08-21T11:16:41;96578.94;;;26.23;37.48
28000;BME280;15328;50.860;10.562;2022-08-21T11:21:47;96576.94;;;26.94;36.34
28000;BME280;15328;50.860;10.562;2022-08-21T11:32:21;96570.88;;;27.40;34.49
28000;BME280;15328;50.860;10.562;2022-08-21T11:42:52;96567.44;;;26.83;35.29
28000;BME280;15328;50.860;10.562;2022-08-21T11:53:15;96569.00;;;26.27;36.62
28000;BME280;15328;50.860;10.562;2022-08-21T11:58:25;96560.50;;;26.20;35.33
28000;BME280;15328;50.860;10.562;2022-08-21T12:09:02;96558.84;;;27.16;33.83
28000;BME280;15328;50.860;10.562;2022-08-21T12:19:13;96556.19;;;26.76;34.03
28000;BME280;15328;50.860;10.562;2022-08-21T12:29:22;96552.25;;;27.68;33.13
28000;BME280;15328;50.860;10.562;2022-08-21T12:34:30;96549.66;;;27.72;33.02
28000;BME280;15328;50.860;10.562;2022-08-21T12:39:33;96550.94;;;27.49;32.63
28000;BME280;15328;50.860;10.562;2022-08-21T12:44:42;96550.16;;;27.14;33.34
28000;BME280;15328;50.860;10.562;2022-08-21T12:49:56;96539.06;;;27.27;33.00
28000;BME280;15328;50.860;10.562;2022-08-21T12:54:58;96529.22;;;27.61;32.41
28000;BME280;15328;50.860;10.562;2022-08-21T13:00:01;96520.50;;;27.85;30.79
28000;BME280;15328;50.860;10.562;2022-08-21T13:05:05;96517.25;;;28.00;29.75
28000;BME280;15328;50.860;10.562;2022-08-21T13:10:28;96522.00;;;27.74;29.85
28000;BME280;15328;50.860;10.562;2022-08-21T13:15:34;96525.25;;;27.67;29.33
28000;BME280;15328;50.860;10.562;2022-08-21T13:20:37;96522.44;;;27.84;28.41
28000;BME280;15328;50.860;10.562;2022-08-21T13:25:38;96518.25;;;28.34;29.50
28000;BME280;15328;50.860;10.562;2022-08-21T13:30:47;96509.22;;;28.62;27.85
28000;BME280;15328;50.860;10.562;2022-08-21T13:41:01;96524.94;;;28.45;28.20
28000;BME280;15328;50.860;10.562;2022-08-21T13:46:07;96510.00;;;28.04;28.75
28000;BME280;15328;50.860;10.562;2022-08-21T13:51:10;96505.00;;;27.68;29.08
28000;BME280;15328;50.860;10.562;2022-08-21T13:56:26;96511.44;;;27.46;29.44
28000;BME280;15328;50.860;10.562;2022-08-21T14:01:48;96511.91;;;27.48;29.44
28000;BME280;15328;50.860;10.562;2022-08-21T14:06:49;96508.34;;;27.74;29.36
28000;BME280;15328;50.860;10.562;2022-08-21T14:11:52;96510.19;;;27.90;29.48
28000;BME280;15328;50.860;10.562;2022-08-21T14:17:03;96517.03;;;28.14;29.38
28000;BME280;15328;50.860;10.562;2022-08-21T14:28:19;96500.91;;;28.21;29.16
28000;BME280;15328;50.860;10.562;2022-08-21T14:33:28;96499.53;;;28.06;29.35
28000;BME280;15328;50.860;10.562;2022-08-21T14:38:29;96495.28;;;27.79;29.71
28000;BME280;15328;50.860;10.562;2022-08-21T14:43:30;96493.88;;;27.73;29.84
28000;BME280;15328;50.860;10.562;2022-08-21T14:48:31;96500.94;;;27.65;29.64
28000;BME280;15328;50.860;10.562;2022-08-21T14:53:31;96488.16;;;27.31;28.58
28000;BME280;15328;50.860;10.562;2022-08-21T14:58:37;96494.44;;;27.23;29.45
28000;BME280;15328;50.860;10.562;2022-08-21T15:03:39;96496.69;;;27.21;30.64
28000;BME280;15328;50.860;10.562;2022-08-21T15:08:39;96502.63;;;27.15;31.01
28000;BME280;15328;50.860;10.562;2022-08-21T15:13:40;96492.50;;;27.06;31.10
28000;BME280;15328;50.860;10.562;2022-08-21T15:18:40;96480.75;;;26.97;31.04
28000;BME280;15328;50.860;10.562;2022-08-21T15:23:41;96475.94;;;26.77;29.99
28000;BME280;15328;50.860;10.562;2022-08-21T15:28:42;96481.56;;;26.63;30.63
28000;BME280;15328;50.860;10.562;2022-08-21T15:33:42;96479.28;;;26.57;30.82
28000;BME280;15328;50.860;10.562;2022-08-21T15:38:43;96474.78;;;26.52;30.90
28000;BME280;15328;50.860;10.562;2022-08-21T15:43:47;96471.25;;;26.43;31.06
28000;BME280;15328;50.860;10.562;2022-08-21T15:48:48;96473.47;;;26.32;30.83
28000;BME280;15328;50.860;10.562;2022-08-21T15:53:49;96467.53;;;26.30;31.16
28000;BME280;15328;50.860;10.562;2022-08-21T15:58:51;96474.56;;;26.23;31.73
28000;BME280;15328;50.860;10.562;2022-08-21T16:03:53;96476.13;;;26.15;31.31
28000;BME280;15328;50.860;10.562;2022-08-21T16:08:54;96468.28;;;26.13;31.07
28000;BME280;15328;50.860;10.562;2022-08-21T16:13:55;96463.31;;;26.07;31.51
28000;BME280;15328;50.860;10.562;2022-08-21T16:18:55;96474.78;;;25.95;31.91
28000;BME280;15328;50.860;10.562;2022-08-21T16:23:55;96467.38;;;25.87;32.55
28000;BME280;15328;50.860;10.562;2022-08-21T16:28:58;96459.81;;;25.75;31.28
28000;BME280;15328;50.860;10.562;2022-08-21T16:34:00;96463.16;;;25.72;31.22
28000;BME280;15328;50.860;10.562;2022-08-21T16:39:01;96459.44;;;25.68;31.95
28000;BME280;15328;50.860;10.562;2022-08-21T16:44:02;96453.47;;;25.57;31.14
28000;BME280;15328;50.860;10.562;2022-08-21T16:49:04;96460.16;;;25.51;31.88
28000;BME280;15328;50.860;10.562;2022-08-21T16:54:05;96460.41;;;25.41;31.94
28000;BME280;15328;50.860;10.562;2022-08-21T16:59:05;96465.63;;;25.29;32.65
28000;BME280;15328;50.860;10.562;2022-08-21T17:04:06;96455.44;;;25.12;32.61
28000;BME280;15328;50.860;10.562;2022-08-21T17:09:06;96463.03;;;25.02;33.16
28000;BME280;15328;50.860;10.562;2022-08-21T17:14:10;96462.44;;;24.91;33.75
28000;BME280;15328;50.860;10.562;2022-08-21T17:19:11;96463.44;;;24.73;34.06
28000;BME280;15328;50.860;10.562;2022-08-21T17:24:12;96462.16;;;24.56;34.52
28000;BME280;15328;50.860;10.562;2022-08-21T17:29:14;96466.22;;;24.45;34.79
28000;BME280;15328;50.860;10.562;2022-08-21T17:34:16;96472.38;;;24.37;34.72
28000;BME280;15328;50.860;10.562;2022-08-21T17:39:16;96475.00;;;24.15;35.53
28000;BME280;15328;50.860;10.562;2022-08-21T17:44:18;96475.31;;;23.99;35.69
28000;BME280;15328;50.860;10.562;2022-08-21T17:49:19;96470.47;;;23.83;35.94
28000;BME280;15328;50.860;10.562;2022-08-21T17:54:19;96475.09;;;23.68;36.31
28000;BME280;15328;50.860;10.562;2022-08-21T17:59:21;96473.72;;;23.38;37.05
28000;BME280;15328;50.860;10.562;2022-08-21T18:04:22;96474.66;;;23.15;37.08
28000;BME280;15328;50.860;10.562;2022-08-21T18:09:23;96484.41;;;22.97;37.28
28000;BME280;15328;50.860;10.562;2022-08-21T18:14:29;96483.31;;;22.79;37.91
28000;BME280;15328;50.860;10.562;2022-08-21T18:19:31;96483.53;;;22.64;37.99
28000;BME280;15328;50.860;10.562;2022-08-21T18:24:31;96490.28;;;22.48;38.29
28000;BME280;15328;50.860;10.562;2022-08-21T18:29:33;96491.59;;;22.32;38.38
28000;BME280;15328;50.860;10.562;2022-08-21T18:34:37;96488.03;;;22.12;38.83
28000;BME280;15328;50.860;10.562;2022-08-21T18:39:40;96495.50;;;21.97;38.50
28000;BME280;15328;50.860;10.562;2022-08-21T18:44:46;96497.56;;;21.81;38.31
28000;BME280;15328;50.860;10.562;2022-08-21T18:49:47;96505.13;;;21.84;38.25
28000;BME280;15328;50.860;10.562;2022-08-21T18:54:47;96506.91;;;21.70;38.65
28000;BME280;15328;50.860;10.562;2022-08-21T18:59:48;96514.50;;;21.68;38.57
28000;BME280;15328;50.860;10.562;2022-08-21T19:04:48;96521.66;;;21.53;38.82
28000;BME280;15328;50.860;10.562;2022-08-21T19:09:48;96517.47;;;21.42;38.63
28000;BME280;15328;50.860;10.562;2022-08-21T19:14:49;96522.47;;;21.25;38.96
28000;BME280;15328;50.860;10.562;2022-08-21T19:19:49;96520.59;;;21.20;38.90
28000;BME280;15328;50.860;10.562;2022-08-21T19:24:50;96526.31;;;21.14;38.82
28000;BME280;15328;50.860;10.562;2022-08-21T19:29:50;96523.91;;;21.07;38.85
28000;BME280;15328;50.860;10.562;2022-08-21T19:34:51;96537.44;;;21.07;38.83
28000;BME280;15328;50.860;10.562;2022-08-21T19:39:51;96530.53;;;20.91;38.92
28000;BME280;15328;50.860;10.562;2022-08-21T19:44:51;96531.16;;;20.78;39.50
28000;BME280;15328;50.860;10.562;2022-08-21T19:49:56;96530.66;;;20.71;39.68
28000;BME280;15328;50.860;10.562;2022-08-21T19:54:57;96530.50;;;20.57;39.77
28000;BME280;15328;50.860;10.562;2022-08-21T19:59:57;96538.69;;;20.31;40.13
28000;BME280;15328;50.860;10.562;2022-08-21T20:04:57;96540.28;;;20.37;40.20
28000;BME280;15328;50.860;10.562;2022-08-21T20:09:58;96533.03;;;20.28;40.25
28000;BME280;15328;50.860;10.562;2022-08-21T20:14:58;96536.06;;;20.11;40.40
28000;BME280;15328;50.860;10.562;2022-08-21T20:19:59;96541.16;;;20.18;40.68
28000;BME280;15328;50.860;10.562;2022-08-21T20:24:59;96539.00;;;20.15;40.58
28000;BME280;15328;50.860;10.562;2022-08-21T20:29:59;96537.16;;;20.05;41.13
28000;BME280;15328;50.860;10.562;2022-08-21T20:35:00;96538.53;;;19.97;41.22
28000;BME280;15328;50.860;10.562;2022-08-21T20:40:01;96539.38;;;19.88;40.94
28000;BME280;15328;50.860;10.562;2022-08-21T20:45:04;96540.19;;;19.83;41.00
28000;BME280;15328;50.860;10.562;2022-08-21T20:50:15;96547.25;;;19.74;40.98
28000;BME280;15328;50.860;10.562;2022-08-21T20:55:22;96545.88;;;19.71;41.02
28000;BME280;15328;50.860;10.562;2022-08-21T21:00:26;96542.38;;;19.66;41.12
28000;BME280;15328;50.860;10.562;2022-08-21T21:05:35;96546.72;;;19.62;41.55
28000;BME280;15328;50.860;10.562;2022-08-21T21:10:54;96548.06;;;19.64;41.50
28000;BME280;15328;50.860;10.562;2022-08-21T21:16:05;96543.75;;;19.53;41.68
28000;BME280;15328;50.860;10.562;2022-08-21T21:26:26;96546.97;;;19.50;41.60
28000;BME280;15328;50.860;10.562;2022-08-21T21:31:29;96551.00;;;19.42;41.98
28000;BME280;15328;50.860;10.562;2022-08-21T22:03:13;96558.84;;;18.98;43.08
28000;BME280;15328;50.860;10.562;2022-08-21T22:08:25;96559.63;;;18.99;43.23
28000;BME280;15328;50.860;10.562;2022-08-21T22:18:45;96565.25;;;18.82;43.72
28000;BME280;15328;50.860;10.562;2022-08-21T22:23:53;96564.72;;;18.75;44.18
28000;BME280;15328;50.860;10.562;2022-08-21T22:28:54;96562.56;;;18.72;44.39
28000;BME280;15328;50.860;10.562;2022-08-21T22:34:14;96569.03;;;18.71;44.58
28000;BME280;15328;50.860;10.562;2022-08-21T22:39:24;96565.78;;;18.64;44.79
28000;BME280;15328;50.860;10.562;2022-08-21T22:44:26;96562.75;;;18.60;45.00
28000;BME280;15328;50.860;10.562;2022-08-21T22:54:35;96560.31;;;18.53;45.27
28000;BME280;15328;50.860;10.562;2022-08-21T22:59:54;96553.84;;;18.49;45.00
28000;BME280;15328;50.860;10.562;2022-08-21T23:04:58;96560.56;;;18.47;44.97
28000;BME280;15328;50.860;10.562;2022-08-21T23:09:59;96567.56;;;18.48;45.03
28000;BME280;15328;50.860;10.562;2022-08-21T23:15:11;96564.59;;;18.44;45.66
28000;BME280;15328;50.860;10.562;2022-08-21T23:20:20;96558.69;;;18.42;45.84
28000;BME280;15328;50.860;10.562;2022-08-21T23:31:26;96552.41;;;18.27;46.29
28000;BME280;15328;50.860;10.562;2022-08-21T23:48:09;96547.19;;;18.00;46.72
28000;BME280;15328;50.860;10.562;2022-08-21T23:53:20;96550.66;;;17.95;47.27
